Time;durP1;ratioP1;P1;durP2;ratioP2;P2;SDS_P1;SDS_P2;PMS_P1;PMS_P2;Temp;Humidity;BMP_temperature;BMP_pressure;BME280_temperature;BME280_humidity;BME280_pressure;Samples;Min_cycle;Max_cycle;Signal;HPM_P1;HPM_P2
2022/06/18 00:00:13;;;;;;;8.70;2.60;;;20.10;40.40;;;;;;5083429;28;20541;-84
2022/06/18 00:02:40;;;;;;;10.53;2.80;;;19.90;40.50;;;;;;5084032;28;20570;-84
2022/06/18 00:05:07;;;;;;;8.13;3.13;;;20.10;41.20;;;;;;5083411;28;20798;-84
2022/06/18 00:07:39;;;;;;;9.43;3.40;;;19.90;40.90;;;;;;5084031;28;20451;-84
2022/06/18 00:10:13;;;;;;;7.87;3.10;;;19.80;41.60;;;;;;5083830;28;20456;-84
2022/06/18 00:15:27;;;;;;;6.43;3.30;;;19.80;40.70;;;;;;5083970;28;20814;-84
2022/06/18 00:17:55;;;;;;;9.50;2.50;;;19.80;41.00;;;;;;5083639;28;20472;-84
2022/06/18 00:20:23;;;;;;;20.33;2.90;;;19.80;39.50;;;;;;5082890;28;20452;-84
2022/06/18 00:22:53;;;;;;;9.20;3.00;;;20.00;39.50;;;;;;5083519;28;20472;-84
2022/06/18 00:25:24;;;;;;;9.13;2.70;;;19.80;40.10;;;;;;5082319;28;20518;-84
2022/06/18 00:27:50;;;;;;;5.47;2.43;;;19.90;37.70;;;;;;5084098;28;20457;-84
2022/06/18 00:30:20;;;;;;;5.93;2.13;;;19.80;39.20;;;;;;5083092;28;20445;-85
2022/06/18 00:32:47;;;;;;;7.07;2.57;;;19.80;37.70;;;;;;5083188;28;20475;-84
2022/06/18 00:35:15;;;;;;;5.37;2.40;;;19.80;39.00;;;;;;5084236;28;20448;-84
2022/06/18 00:37:42;;;;;;;15.73;2.80;;;19.70;38.70;;;;;;5083128;28;20487;-84
2022/06/18 00:40:15;;;;;;;8.20;2.77;;;19.70;38.60;;;;;;5082880;28;20456;-84
2022/06/18 00:42:45;;;;;;;8.60;2.50;;;19.70;38.90;;;;;;5083039;28;20557;-84
2022/06/18 00:45:16;;;;;;;9.70;2.47;;;19.60;38.40;;;;;;5083522;28;20451;-84
2022/06/18 00:47:52;;;;;;;6.40;2.63;;;19.70;38.00;;;;;;5083254;28;20829;-84
2022/06/18 00:50:21;;;;;;;5.60;2.50;;;19.70;37.50;;;;;;5083130;28;20457;-85
2022/06/18 00:52:52;;;;;;;7.17;2.13;;;19.70;36.50;;;;;;5084022;28;20492;-84
2022/06/18 00:55:23;;;;;;;6.60;2.80;;;19.60;35.00;;;;;;5082898;28;20448;-84
2022/06/18 00:57:56;;;;;;;4.97;2.33;;;19.80;35.10;;;;;;5082818;28;20477;-84
2022/06/18 01:00:28;;;;;;;5.70;2.30;;;19.90;36.20;;;;;;5082415;28;20451;-85
2022/06/18 01:02:56;;;;;;;7.17;2.50;;;19.70;35.50;;;;;;5083105;28;20515;-84
2022/06/18 01:05:24;;;;;;;5.37;2.50;;;19.80;35.10;;;;;;5083087;28;20460;-84
2022/06/18 01:07:55;;;;;;;12.23;2.90;;;19.80;35.10;;;;;;5081620;28;20464;-84
2022/06/18 01:10:28;;;;;;;5.60;2.00;;;19.70;35.00;;;;;;5080843;28;20463;-85
2022/06/18 01:12:59;;;;;;;6.50;2.40;;;19.70;36.60;;;;;;5082389;28;20467;-84
2022/06/18 01:15:26;;;;;;;8.70;2.33;;;19.60;36.50;;;;;;5080991;28;20455;-84
2022/06/18 01:17:54;;;;;;;9.63;2.70;;;19.60;35.60;;;;;;5081468;28;20534;-84
2022/06/18 01:20:24;;;;;;;7.93;2.60;;;19.60;36.10;;;;;;5081540;28;20469;-84
2022/06/18 01:23:00;;;;;;;7.67;2.20;;;19.60;37.10;;;;;;5081150;28;20471;-84
2022/06/18 01:25:31;;;;;;;7.27;2.37;;;19.40;37.10;;;;;;5082598;28;20446;-84
2022/06/18 01:27:58;;;;;;;6.53;2.33;;;19.40;37.40;;;;;;5081935;28;20452;-84
2022/06/18 01:30:32;;;;;;;5.90;2.10;;;19.30;37.50;;;;;;5081295;28;20448;-84
2022/06/18 01:33:02;;;;;;;6.27;2.10;;;19.10;38.50;;;;;;5081875;28;20487;-82
2022/06/18 01:35:30;;;;;;;6.30;2.80;;;19.10;38.90;;;;;;5083428;28;20515;-85
2022/06/18 01:37:58;;;;;;;9.37;2.20;;;19.10;38.70;;;;;;5082817;28;20454;-85
2022/06/18 01:40:33;;;;;;;5.63;2.43;;;19.10;41.10;;;;;;5081714;28;20455;-84
2022/06/18 01:43:02;;;;;;;6.30;2.50;;;18.90;39.80;;;;;;5081833;28;20471;-85
2022/06/18 01:45:33;;;;;;;7.73;2.67;;;19.00;40.60;;;;;;5082669;28;20523;-85
2022/06/18 01:48:07;;;;;;;6.00;2.70;;;19.00;40.40;;;;;;5080562;28;20472;-84
2022/06/18 01:50:39;;;;;;;7.43;2.90;;;19.00;40.00;;;;;;5081340;28;20457;-84
2022/06/18 01:53:10;;;;;;;5.87;2.80;;;19.00;38.90;;;;;;5081254;28;21013;-85
2022/06/18 01:55:46;;;;;;;4.70;2.10;;;19.10;38.40;;;;;;5082185;28;20443;-85
2022/06/18 01:58:17;;;;;;;6.07;2.23;;;19.10;39.20;;;;;;5081595;28;20566;-84
2022/06/18 02:00:49;;;;;;;6.70;2.33;;;19.10;39.40;;;;;;5082793;28;20455;-85
2022/06/18 02:03:16;;;;;;;8.63;2.47;;;19.10;39.50;;;;;;5082244;28;20490;-84
2022/06/18 02:05:43;;;;;;;5.50;2.60;;;19.00;40.00;;;;;;5083300;28;20451;-85
2022/06/18 02:08:13;;;;;;;7.13;2.30;;;18.80;40.50;;;;;;5081629;28;20473;-84
2022/06/18 02:10:45;;;;;;;7.50;2.83;;;18.80;40.70;;;;;;5081847;28;20904;-85
2022/06/18 02:13:13;;;;;;;7.00;2.73;;;18.70;41.20;;;;;;5081167;28;20534;-85
2022/06/18 02:15:44;;;;;;;5.90;2.63;;;18.70;42.40;;;;;;5083354;28;20509;-84
2022/06/18 02:18:16;;;;;;;6.30;3.10;;;18.50;43.00;;;;;;5081673;28;21008;-85
2022/06/18 02:20:47;;;;;;;8.20;3.10;;;18.50;43.70;;;;;;5083229;28;20462;-85
2022/06/18 02:23:19;;;;;;;5.20;2.50;;;18.40;43.80;;;;;;5085882;28;20479;-85
2022/06/18 02:25:54;;;;;;;5.10;2.23;;;18.40;44.80;;;;;;5079512;28;20450;-85
2022/06/18 02:28:32;;;;;;;6.73;2.60;;;18.50;43.00;;;;;;5083709;28;20450;-85
2022/06/18 02:31:01;;;;;;;12.43;3.07;;;18.40;43.80;;;;;;5087003;28;20460;-85
2022/06/18 02:33:36;;;;;;;6.60;2.83;;;18.30;45.50;;;;;;5087407;28;20524;-85
2022/06/18 02:36:12;;;;;;;5.87;2.57;;;18.30;45.60;;;;;;5086564;28;20451;-85
2022/06/18 02:38:39;;;;;;;7.27;2.57;;;18.20;43.70;;;;;;5086274;28;20476;-84
2022/06/18 02:41:09;;;;;;;7.83;2.30;;;18.60;43.00;;;;;;5087142;28;20487;-86
2022/06/18 02:43:41;;;;;;;5.77;2.90;;;18.60;43.10;;;;;;5087468;28;20470;-85
2022/06/18 02:46:08;;;;;;;6.47;2.93;;;18.60;43.00;;;;;;5071064;28;20472;-85
2022/06/18 02:48:38;;;;;;;6.80;3.10;;;18.60;43.00;;;;;;5086481;28;20508;-85
2022/06/18 02:51:07;;;;;;;17.23;2.70;;;18.50;43.80;;;;;;5085088;28;20450;-86
2022/06/18 02:53:34;;;;;;;6.80;2.87;;;18.30;46.40;;;;;;5084181;28;20487;-85
2022/06/18 02:56:04;;;;;;;10.83;3.00;;;18.10;48.90;;;;;;5084610;28;20439;-84
2022/06/18 02:58:35;;;;;;;9.07;3.13;;;17.90;50.50;;;;;;5084756;28;20493;-85
2022/06/18 03:01:04;;;;;;;6.60;3.83;;;17.90;50.20;;;;;;5086776;28;20567;-84
2022/06/18 03:03:39;;;;;;;11.30;3.20;;;17.60;51.00;;;;;;5087127;28;20474;-85
2022/06/18 03:06:08;;;;;;;7.80;2.80;;;17.60;51.00;;;;;;5087174;28;20487;-85
2022/06/18 03:08:35;;;;;;;7.07;2.93;;;17.50;52.00;;;;;;5087099;28;20909;-85
2022/06/18 03:13:49;;;;;;;6.87;3.17;;;17.20;55.90;;;;;;5087311;28;20496;-86
2022/06/18 03:16:19;;;;;;;7.53;2.97;;;17.20;56.20;;;;;;5087956;28;20446;-85
2022/06/18 03:18:47;;;;;;;5.40;2.57;;;17.30;56.20;;;;;;5087080;28;20548;-85
2022/06/18 03:21:19;;;;;;;5.00;2.70;;;17.40;56.20;;;;;;5086350;28;20448;-84
2022/06/18 03:23:46;;;;;;;9.97;3.37;;;17.40;55.80;;;;;;5085085;28;20498;-85
2022/06/18 03:26:35;;;;;;;7.50;3.23;;;17.30;55.20;;;;;;5083655;28;20460;-86
2022/06/18 03:29:42;;;;;;;7.17;3.43;;;17.30;56.10;;;;;;5079465;28;20455;-86
2022/06/18 03:33:01;;;;;;;10.33;3.20;;;17.20;56.30;;;;;;5082573;28;20456;-86
2022/06/18 03:45:36;;;;;;;6.63;2.90;;;17.20;58.40;;;;;;5010511;28;20505;-87
2022/06/18 03:48:27;;;;;;;7.50;3.67;;;17.30;58.00;;;;;;5032661;28;20487;-86
2022/06/18 03:50:58;;;;;;;6.13;3.53;;;17.30;57.10;;;;;;5066839;28;20485;-86
2022/06/18 03:53:45;;;;;;;;;;;;;;;;;;;;;
2022/06/18 03:56:23;;;;;;;7.47;3.30;;;17.30;59.30;;;;;;5080558;28;20424;-86
2022/06/18 03:59:22;;;;;;;8.30;3.37;;;17.30;59.40;;;;;;5085906;28;20476;-87
2022/06/18 04:05:46;;;;;;;12.80;4.30;;;17.10;63.20;;;;;;5006749;28;20488;-86
2022/06/18 04:08:37;;;;;;;9.43;3.90;;;17.00;66.50;;;;;;5048633;28;20456;-85
2022/06/18 04:11:24;;;;;;;9.40;3.70;;;17.10;65.60;;;;;;5087532;28;20445;-86
2022/06/18 04:14:02;;;;;;;6.63;3.67;;;17.20;65.00;;;;;;5088748;28;20466;-86
2022/06/18 04:16:51;;;;;;;5.40;3.23;;;17.30;65.30;;;;;;5088614;28;20448;-86
2022/06/18 04:19:46;;;;;;;8.20;4.37;;;17.40;66.00;;;;;;5087324;28;20835;-86
2022/06/18 04:22:26;;;;;;;9.50;4.03;;;17.40;65.90;;;;;;5087464;28;20449;-86
2022/06/18 04:25:31;;;;;;;8.97;3.70;;;17.50;65.60;;;;;;5084278;28;20453;-86
2022/06/18 04:28:29;;;;;;;7.43;3.57;;;17.80;62.90;;;;;;5084502;28;20445;-86
2022/06/18 04:31:29;;;;;;;6.33;3.07;;;17.90;59.90;;;;;;5080397;28;20449;-87
2022/06/18 04:46:50;;;;;;;6.70;3.23;;;18.80;60.80;;;;;;5073520;28;20556;-87
2022/06/18 04:49:59;;;;;;;6.77;3.03;;;18.80;60.10;;;;;;5076367;28;20471;-87
2022/06/18 04:52:46;;;;;;;5.77;3.43;;;19.00;59.80;;;;;;5077651;28;20533;-87
2022/06/18 04:58:54;;;;;;;6.70;3.63;;;19.10;59.60;;;;;;5072173;28;20451;-87
2022/06/18 05:01:50;;;;;;;6.60;3.20;;;19.30;59.20;;;;;;5031883;28;20922;-87
2022/06/18 05:04:20;;;;;;;4.97;2.90;;;19.50;60.60;;;;;;5070892;28;21017;-88
2022/06/18 05:07:20;;;;;;;5.70;3.10;;;19.60;59.20;;;;;;5088994;28;20440;-87
2022/06/18 05:10:19;;;;;;;6.20;2.77;;;19.80;57.90;;;;;;5076197;28;20435;-85
2022/06/18 05:16:06;;;;;;;8.63;2.90;;;20.20;52.50;;;;;;5075572;28;20457;-85
2022/06/18 05:21:45;;;;;;;6.93;3.17;;;20.90;51.50;;;;;;5064179;28;20477;-86
2022/06/18 05:24:47;;;;;;;5.67;2.80;;;21.30;51.50;;;;;;5081889;28;20470;-84
2022/06/18 05:27:34;;;;;;;10.63;3.30;;;21.50;49.80;;;;;;5081585;28;20460;-83
2022/06/18 05:30:01;;;;;;;17.63;2.67;;;22.30;47.90;;;;;;5081733;28;20507;-84
2022/06/18 05:32:41;;;;;;;4.97;2.53;;;22.80;44.80;;;;;;5086272;28;21069;-83
2022/06/18 05:35:12;;;;;;;6.70;2.57;;;22.90;44.90;;;;;;5084727;28;20453;-83
2022/06/18 05:37:46;;;;;;;6.87;2.10;;;23.20;41.30;;;;;;5082776;28;20458;-84
2022/06/18 05:42:57;;;;;;;6.60;2.40;;;23.80;39.70;;;;;;5078979;28;20474;-83
2022/06/18 05:45:24;;;;;;;8.00;2.83;;;24.20;39.20;;;;;;5072442;28;20964;-84
2022/06/18 05:47:52;;;;;;;6.67;2.30;;;24.30;39.30;;;;;;5064486;28;20448;-83
2022/06/18 05:50:20;;;;;;;6.90;2.40;;;24.50;35.80;;;;;;5073599;28;20438;-82
2022/06/18 05:52:47;;;;;;;6.50;2.60;;;24.70;34.00;;;;;;5074630;28;20466;-84
2022/06/18 05:55:13;;;;;;;6.30;3.13;;;25.00;33.80;;;;;;5079443;28;20537;-83
2022/06/18 05:57:47;;;;;;;6.40;2.47;;;25.40;35.00;;;;;;5080645;28;20446;-83
2022/06/18 06:00:22;;;;;;;9.67;2.73;;;25.70;34.10;;;;;;5075115;28;20994;-83
2022/06/18 06:02:49;;;;;;;7.87;2.53;;;25.90;31.30;;;;;;5105433;22;20799;-83
2022/06/18 06:05:17;;;;;;;6.63;3.20;;;26.10;30.90;;;;;;5089299;28;20432;-82
2022/06/18 06:07:45;;;;;;;5.80;2.90;;;26.40;28.60;;;;;;5088923;28;20421;-83
2022/06/18 06:13:06;;;;;;;6.43;2.73;;;26.70;25.50;;;;;;5091319;28;20461;-82
2022/06/18 06:15:37;;;;;;;6.23;2.37;;;27.00;25.80;;;;;;5090766;28;20427;-82
2022/06/18 06:18:04;;;;;;;5.60;2.60;;;27.30;23.80;;;;;;5092443;28;20451;-82
2022/06/18 06:20:47;;;;;;;8.40;2.37;;;27.40;20.70;;;;;;5092163;28;20482;-83
2022/06/18 06:23:20;;;;;;;6.83;2.50;;;27.50;20.90;;;;;;5091031;28;20470;-82
2022/06/18 06:25:52;;;;;;;7.80;2.60;;;27.70;20.50;;;;;;5091160;28;20409;-82
2022/06/18 06:28:21;;;;;;;7.50;2.73;;;27.80;19.40;;;;;;5089538;28;20954;-83
2022/06/18 06:30:48;;;;;;;5.00;2.30;;;28.00;20.70;;;;;;5082074;28;20485;-83
2022/06/18 06:33:15;;;;;;;5.83;2.27;;;28.40;19.30;;;;;;5082747;28;20473;-82
2022/06/18 06:35:43;;;;;;;8.53;2.50;;;28.30;17.60;;;;;;5083073;28;20429;-85
2022/06/18 06:38:11;;;;;;;5.47;2.27;;;28.70;16.70;;;;;;5093684;28;20450;-82
2022/06/18 06:40:39;;;;;;;12.00;2.70;;;28.90;16.70;;;;;;5094682;28;20439;-83
2022/06/18 06:43:07;;;;;;;6.93;2.70;;;28.50;16.00;;;;;;5094629;28;20456;-83
2022/06/18 06:45:35;;;;;;;5.27;2.00;;;28.40;17.70;;;;;;5093139;28;20447;-85
2022/06/18 06:48:02;;;;;;;7.23;2.97;;;28.00;17.40;;;;;;5089147;28;20431;-85
2022/06/18 06:50:30;;;;;;;7.10;2.77;;;28.10;17.50;;;;;;5084907;28;20470;-84
2022/06/18 06:52:59;;;;;;;9.03;2.90;;;28.00;18.30;;;;;;5077613;28;20470;-84
2022/06/18 06:58:14;;;;;;;7.13;2.50;;;28.40;17.70;;;;;;5078588;28;21028;-85
2022/06/18 07:00:44;;;;;;;5.87;2.50;;;28.70;18.20;;;;;;5077865;28;20417;-85
2022/06/18 07:03:11;;;;;;;6.30;2.47;;;29.00;16.40;;;;;;5073447;28;20955;-85
2022/06/18 07:05:38;;;;;;;8.87;3.13;;;29.00;15.10;;;;;;5073899;28;20458;-85
2022/06/18 07:08:07;;;;;;;7.23;2.87;;;29.20;13.70;;;;;;5074381;28;20454;-84
2022/06/18 07:10:34;;;;;;;12.20;2.90;;;29.40;13.90;;;;;;5077712;28;20839;-86
2022/06/18 07:13:01;;;;;;;7.90;2.93;;;29.40;13.60;;;;;;5078784;28;20497;-86
2022/06/18 07:15:28;;;;;;;6.80;2.73;;;29.10;13.60;;;;;;5079428;28;20457;-86
2022/06/18 07:17:55;;;;;;;5.93;2.43;;;29.60;14.70;;;;;;5078969;28;20425;-85
2022/06/18 07:20:22;;;;;;;6.60;2.10;;;29.50;14.10;;;;;;5078072;28;20446;-84
2022/06/18 07:22:49;;;;;;;6.77;2.93;;;29.90;13.50;;;;;;5082722;28;20466;-87
2022/06/18 07:25:17;;;;;;;9.20;3.77;;;30.10;12.70;;;;;;5087005;28;20463;-88
2022/06/18 07:27:44;;;;;;;18.33;3.20;;;30.10;12.60;;;;;;5086862;28;20942;-87
2022/06/18 07:30:12;;;;;;;6.27;2.87;;;30.50;11.10;;;;;;5084870;28;20474;-85
2022/06/18 07:32:45;;;;;;;6.40;2.63;;;30.40;11.60;;;;;;5090164;28;20508;-86
2022/06/18 07:35:18;;;;;;;6.77;2.30;;;30.50;8.30;;;;;;5088102;28;20425;-88
2022/06/18 07:37:45;;;;;;;7.03;2.55;;;30.70;5.80;;;;;;5086399;28;20424;-88
2022/06/18 07:40:12;;;;;;;5.10;2.10;;;30.70;3.40;;;;;;5080606;28;20663;-82
2022/06/18 07:42:42;;;;;;;6.53;2.80;;;31.00;5.90;;;;;;5081161;28;20461;-86
2022/06/18 07:45:15;;;;;;;7.07;2.83;;;31.20;5.20;;;;;;5081729;28;20425;-87
2022/06/18 07:47:42;;;;;;;9.80;2.60;;;31.30;1.60;;;;;;5082792;28;20558;-86
2022/06/18 07:50:09;;;;;;;5.80;2.80;;;31.00;1.00;;;;;;5076175;28;20480;-88
2022/06/18 07:52:36;;;;;;;5.03;2.30;;;31.40;1.00;;;;;;5074276;28;20474;-88
2022/06/18 07:55:03;;;;;;;7.43;2.80;;;31.40;1.00;;;;;;5074376;28;20797;-88
2022/06/18 07:57:30;;;;;;;6.27;2.30;;;31.40;1.00;;;;;;5074025;28;20458;-88
2022/06/18 07:59:58;;;;;;;5.20;2.20;;;31.70;1.00;;;;;;5072875;28;20512;-88
2022/06/18 08:02:25;;;;;;;6.43;2.23;;;31.60;1.00;;;;;;5073846;28;20454;-87
2022/06/18 08:05:19;;;;;;;8.13;2.90;;;31.60;1.00;;;;;;5077465;28;20446;-86
2022/06/18 08:07:46;;;;;;;8.00;2.83;;;31.70;1.00;;;;;;5084415;28;20629;-84
2022/06/18 08:10:12;;;;;;;9.73;2.43;;;31.90;1.00;;;;;;5082304;28;20440;-82
2022/06/18 08:12:39;;;;;;;9.33;2.87;;;31.70;1.00;;;;;;5075768;28;20445;-84
2022/06/18 08:15:09;;;;;;;10.87;2.77;;;32.30;1.00;;;;;;5079012;28;20449;-85
2022/06/18 08:17:36;;;;;;;18.70;3.13;;;32.30;1.00;;;;;;5079039;28;20435;-85
2022/06/18 08:20:03;;;;;;;5.80;2.37;;;32.70;1.00;;;;;;5077706;28;20844;-84
2022/06/18 08:22:31;;;;;;;6.20;2.60;;;32.80;1.00;;;;;;5079915;28;20450;-84
2022/06/18 08:24:58;;;;;;;7.30;2.77;;;33.00;1.00;;;;;;5076960;28;20454;-85
2022/06/18 08:27:25;;;;;;;8.63;2.87;;;33.10;1.00;;;;;;5078244;28;20458;-85
2022/06/18 08:29:52;;;;;;;6.43;2.47;;;33.50;1.00;;;;;;5076763;28;20432;-82
2022/06/18 08:32:20;;;;;;;5.27;2.17;;;33.40;1.00;;;;;;5078514;28;20448;-82
2022/06/18 08:34:47;;;;;;;5.40;2.50;;;33.30;1.00;;;;;;5078406;28;20425;-82
2022/06/18 08:37:14;;;;;;;5.80;2.03;;;33.50;1.00;;;;;;5077921;28;20449;-83
2022/06/18 08:39:41;;;;;;;5.47;2.57;;;33.70;1.00;;;;;;5077829;28;20417;-81
2022/06/18 08:42:23;;;;;;;5.43;2.23;;;33.70;1.00;;;;;;5073961;28;20917;-81
2022/06/18 08:45:14;;;;;;;7.40;2.93;;;33.60;1.00;;;;;;5075326;28;20828;-82
2022/06/18 08:48:05;;;;;;;8.10;2.67;;;33.70;1.00;;;;;;5078466;28;20913;-82
2022/06/18 08:50:42;;;;;;;5.57;2.53;;;33.90;1.00;;;;;;5078382;28;20817;-81
2022/06/18 08:53:34;;;;;;;6.63;2.90;;;34.30;1.00;;;;;;5077910;28;20445;-82
2022/06/18 08:56:06;;;;;;;7.97;2.63;;;33.90;1.00;;;;;;5078408;28;20425;-82
2022/06/18 08:58:43;;;;;;;7.67;2.77;;;34.20;1.00;;;;;;5057258;28;20922;-81
2022/06/18 09:01:21;;;;;;;6.47;3.07;;;34.50;1.00;;;;;;5058326;28;20451;-81
2022/06/18 09:04:00;;;;;;;9.10;2.60;;;34.50;1.00;;;;;;5057746;28;21004;-82
2022/06/18 09:06:37;;;;;;;6.50;3.07;;;34.40;1.00;;;;;;5060299;28;20433;-83
2022/06/18 09:09:13;;;;;;;6.33;2.80;;;34.60;1.00;;;;;;5077771;28;20429;-83
2022/06/18 09:12:04;;;;;;;5.37;2.60;;;34.80;1.00;;;;;;5077993;28;20879;-83
2022/06/18 09:14:40;;;;;;;6.37;2.70;;;35.20;1.00;;;;;;5078101;28;20485;-83
2022/06/18 09:17:14;;;;;;;7.07;2.60;;;35.00;1.00;;;;;;5078105;28;20496;-83
2022/06/18 09:19:44;;;;;;;5.80;2.33;;;35.20;1.00;;;;;;5075180;28;20440;-83
2022/06/18 09:22:15;;;;;;;7.60;2.37;;;35.30;1.00;;;;;;5077313;28;20438;-84
2022/06/18 09:24:44;;;;;;;7.30;3.20;;;35.00;1.00;;;;;;5074940;28;20417;-83
2022/06/18 09:27:18;;;;;;;6.30;2.80;;;35.30;1.00;;;;;;5076423;28;20446;-83
2022/06/18 09:29:48;;;;;;;6.53;2.50;;;35.80;1.00;;;;;;5075167;28;20488;-83
2022/06/18 09:32:20;;;;;;;8.40;2.43;;;36.30;1.00;;;;;;5075276;28;20478;-84
2022/06/18 09:34:53;;;;;;;17.80;3.00;;;36.10;1.00;;;;;;5075968;28;20428;-83
2022/06/18 09:37:26;;;;;;;7.40;2.00;;;36.00;1.00;;;;;;5082842;28;20447;-84
2022/06/18 09:39:58;;;;;;;8.83;3.60;;;35.90;1.00;;;;;;5075695;28;20461;-83
2022/06/18 09:42:29;;;;;;;7.17;2.70;;;35.20;1.00;;;;;;5076703;28;20421;-83
2022/06/18 09:45:02;;;;;;;7.50;2.60;;;35.30;1.00;;;;;;5077600;28;20458;-83
2022/06/18 09:47:33;;;;;;;6.33;2.20;;;35.10;1.00;;;;;;5076698;28;20428;-83
2022/06/18 09:50:01;;;;;;;10.20;3.30;;;34.90;1.00;;;;;;5076982;28;20458;-83
2022/06/18 09:52:34;;;;;;;5.53;2.50;;;35.50;1.00;;;;;;5077357;28;20475;-83
2022/06/18 09:55:06;;;;;;;7.50;2.43;;;35.60;1.00;;;;;;5065580;28;20454;-83
2022/06/18 09:57:36;;;;;;;7.33;2.50;;;35.60;1.00;;;;;;5077297;28;20425;-83
2022/06/18 10:00:06;;;;;;;8.03;2.57;;;36.50;1.00;;;;;;5076326;28;20429;-83
2022/06/18 10:02:35;;;;;;;13.73;3.33;;;36.60;1.00;;;;;;5077554;28;20889;-83
2022/06/18 10:07:53;;;;;;;6.57;3.03;;;37.20;1.00;;;;;;5076811;28;20464;-83
2022/06/18 10:10:24;;;;;;;6.00;2.60;;;37.00;1.00;;;;;;5076149;28;20486;-83
2022/06/18 10:12:54;;;;;;;8.93;3.00;;;36.60;1.00;;;;;;5076715;28;22093;-83
2022/06/18 10:15:23;;;;;;;7.80;2.80;;;36.30;1.00;;;;;;5076848;28;20483;-81
2022/06/18 10:18:16;;;;;;;8.33;2.93;;;36.10;1.00;;;;;;5076647;28;20533;-84
2022/06/18 10:20:50;;;;;;;16.77;3.47;;;36.20;1.00;;;;;;5076205;28;20417;-84
2022/06/18 10:23:32;;;;;;;8.97;3.67;;;37.00;1.00;;;;;;5076019;28;20470;-84
2022/06/18 10:26:08;;;;;;;5.60;2.70;;;38.00;1.00;;;;;;5075732;28;20447;-84
2022/06/18 10:28:52;;;;;;;10.43;3.23;;;38.30;1.00;;;;;;5076528;28;20859;-83
2022/06/18 10:31:25;;;;;;;6.23;3.00;;;37.90;1.00;;;;;;5076327;28;20471;-85
2022/06/18 10:34:00;;;;;;;6.07;2.97;;;38.50;1.00;;;;;;5076574;28;20474;-83
2022/06/18 10:36:36;;;;;;;6.50;2.90;;;38.40;1.00;;;;;;5077009;28;20803;-84
2022/06/18 10:39:16;;;;;;;6.53;2.80;;;38.60;1.00;;;;;;5072373;28;20469;-83
2022/06/18 10:41:57;;;;;;;9.97;2.93;;;38.80;1.00;;;;;;5075905;28;20821;-83
2022/06/18 10:44:36;;;;;;;7.00;3.03;;;37.90;1.00;;;;;;5079344;28;20446;-84
2022/06/18 10:47:06;;;;;;;8.00;2.77;;;38.10;1.00;;;;;;5077553;28;20473;-83
2022/06/18 10:49:33;;;;;;;6.33;2.87;;;38.00;1.00;;;;;;5079373;28;20478;-83
2022/06/18 10:52:01;;;;;;;10.07;2.90;;;37.90;1.00;;;;;;5080273;28;20478;-83
2022/06/18 10:54:32;;;;;;;8.30;2.40;;;37.80;1.00;;;;;;5079904;28;20453;-83
2022/06/18 10:56:58;;;;;;;7.40;2.80;;;38.00;1.00;;;;;;5080491;28;20424;-83
2022/06/18 10:59:31;;;;;;;5.60;2.63;;;38.40;1.00;;;;;;5079139;28;20431;-83
2022/06/18 11:02:05;;;;;;;6.03;2.77;;;38.50;1.00;;;;;;5080263;28;20425;-83
2022/06/18 11:04:33;;;;;;;9.13;3.37;;;38.60;1.00;;;;;;5079769;28;20820;-83
2022/06/18 11:07:03;;;;;;;9.23;2.30;;;38.90;1.00;;;;;;5079728;28;20428;-83
2022/06/18 11:09:33;;;;;;;11.00;3.63;;;38.50;1.00;;;;;;5079803;28;20435;-83
2022/06/18 11:12:06;;;;;;;8.00;2.77;;;38.90;1.00;;;;;;5079945;28;20466;-84
2022/06/18 11:14:39;;;;;;;9.23;2.90;;;39.70;1.00;;;;;;5080244;28;20469;-83
2022/06/18 11:17:20;;;;;;;7.17;3.00;;;39.90;1.00;;;;;;5078907;28;20447;-83
2022/06/18 11:19:48;;;;;;;8.07;2.53;;;39.80;1.00;;;;;;5077547;28;20435;-83
2022/06/18 11:22:22;;;;;;;11.33;3.37;;;39.50;1.00;;;;;;5079141;28;20446;-82
2022/06/18 11:24:54;;;;;;;9.03;3.40;;;39.70;1.00;;;;;;5079894;28;20420;-82
2022/06/18 11:27:21;;;;;;;6.63;2.97;;;39.80;1.00;;;;;;5080265;28;20450;-83
2022/06/18 11:29:51;;;;;;;9.63;2.83;;;40.20;1.00;;;;;;5079117;28;20441;-84
2022/06/18 11:32:31;;;;;;;7.53;2.80;;;40.70;1.00;;;;;;5080041;28;20861;-81
2022/06/18 11:35:04;;;;;;;10.73;3.30;;;40.50;1.00;;;;;;5077235;28;20449;-80
2022/06/18 11:37:38;;;;;;;9.43;2.53;;;40.50;1.00;;;;;;5078142;28;20449;-82
2022/06/18 11:40:19;;;;;;;6.90;3.20;;;40.00;1.00;;;;;;5073461;28;20453;-82
2022/06/18 11:42:50;;;;;;;7.00;3.10;;;39.90;1.00;;;;;;5078832;28;20453;-82
2022/06/18 11:45:28;;;;;;;7.93;3.20;;;40.10;1.00;;;;;;5078613;28;20454;-82
2022/06/18 11:48:00;;;;;;;9.70;3.37;;;40.40;1.00;;;;;;5079140;28;20450;-81
2022/06/18 11:50:39;;;;;;;6.43;2.77;;;41.70;1.00;;;;;;5078707;28;20537;-82
2022/06/18 11:53:12;;;;;;;10.60;2.70;;;42.00;1.00;;;;;;5078966;28;20463;-82
2022/06/18 11:55:47;;;;;;;7.50;3.40;;;41.90;1.00;;;;;;5080202;28;20460;-83
2022/06/18 11:58:19;;;;;;;9.73;3.13;;;42.20;1.00;;;;;;5074393;28;20449;-82
2022/06/18 12:00:53;;;;;;;8.93;3.73;;;42.00;1.00;;;;;;5079353;28;20457;-81
2022/06/18 12:03:43;;;;;;;8.10;3.23;;;41.90;1.00;;;;;;5100305;22;20463;-85
2022/06/18 12:06:16;;;;;;;9.97;3.03;;;42.90;1.00;;;;;;5072554;28;20531;-86
2022/06/18 12:08:47;;;;;;;7.80;2.97;;;43.10;1.00;;;;;;5071840;28;20938;-84
2022/06/18 12:11:35;;;;;;;13.67;3.17;;;43.30;1.00;;;;;;5071596;28;20877;-85
2022/06/18 12:14:06;;;;;;;8.17;2.63;;;42.60;1.00;;;;;;5078919;28;20465;-86
2022/06/18 12:16:41;;;;;;;9.17;3.03;;;41.90;1.00;;;;;;5073393;28;20460;-87
2022/06/18 12:19:20;;;;;;;8.13;3.40;;;42.20;1.00;;;;;;5070913;28;20515;-86
2022/06/18 12:21:53;;;;;;;11.37;2.77;;;42.60;1.00;;;;;;5073491;28;20446;-86
2022/06/18 12:24:40;;;;;;;10.97;3.53;;;43.00;1.00;;;;;;5072671;28;20469;-86
2022/06/18 12:27:11;;;;;;;9.03;3.83;;;42.50;1.00;;;;;;5071066;28;20565;-87
2022/06/18 12:29:55;;;;;;;7.30;3.50;;;42.70;1.00;;;;;;5073258;28;20862;-86
2022/06/18 12:32:31;;;;;;;9.53;2.90;;;42.10;1.00;;;;;;5072583;28;20866;-85
2022/06/18 12:35:09;;;;;;;6.80;3.03;;;42.40;1.00;;;;;;5070951;28;20450;-86
2022/06/18 12:37:50;;;;;;;10.83;3.27;;;42.50;1.00;;;;;;5073614;28;20421;-86
2022/06/18 12:40:28;;;;;;;8.00;3.50;;;41.90;1.00;;;;;;5072445;28;20936;-86
2022/06/18 12:43:05;;;;;;;7.47;2.70;;;42.30;1.00;;;;;;5071526;28;20792;-86
2022/06/18 12:45:41;;;;;;;13.30;3.57;;;42.90;1.00;;;;;;5072935;28;20464;-85
2022/06/18 12:48:16;;;;;;;8.70;3.27;;;42.60;1.00;;;;;;5071925;28;20791;-85
2022/06/18 12:50:55;;;;;;;9.33;3.00;;;42.40;1.00;;;;;;5072060;28;20440;-85
2022/06/18 12:53:41;;;;;;;8.80;3.20;;;42.00;1.00;;;;;;5093237;28;20473;-85
2022/06/18 12:56:27;;;;;;;11.40;3.93;;;41.50;1.00;;;;;;5079145;28;20450;-86
2022/06/18 12:59:16;;;;;;;10.50;3.07;;;41.40;1.00;;;;;;5070751;28;21124;-85
2022/06/18 13:01:54;;;;;;;7.77;2.90;;;40.80;1.00;;;;;;5072806;28;20448;-84
2022/06/18 13:04:46;;;;;;;9.70;3.20;;;40.40;1.00;;;;;;5071245;28;20580;-87
2022/06/18 13:07:24;;;;;;;8.70;3.47;;;40.60;1.00;;;;;;5071431;28;20529;-84
2022/06/18 13:10:03;;;;;;;7.93;3.10;;;41.00;1.00;;;;;;5072214;28;20518;-85
2022/06/18 13:12:57;;;;;;;8.20;3.40;;;41.70;1.00;;;;;;5071854;28;20449;-84
2022/06/18 13:15:32;;;;;;;6.77;2.57;;;41.50;1.00;;;;;;5070776;28;20432;-85
2022/06/18 13:18:05;;;;;;;13.87;3.57;;;41.30;1.00;;;;;;5071818;28;20804;-86
2022/06/18 13:20:38;;;;;;;10.27;3.20;;;41.90;1.00;;;;;;5070941;28;20453;-85
2022/06/18 13:28:10;;;;;;;8.23;3.17;;;42.20;1.00;;;;;;5083982;28;20563;-85
2022/06/18 13:28:57;;;;;;;14.93;3.70;;;41.40;1.00;;;;;;5070060;28;20423;-84
2022/06/18 13:31:33;;;;;;;9.10;2.80;;;41.40;1.00;;;;;;5071603;28;20458;-85
2022/06/18 13:34:10;;;;;;;7.80;3.87;;;41.50;1.00;;;;;;5072322;28;20497;-86
2022/06/18 13:36:50;;;;;;;9.07;3.57;;;41.90;1.00;;;;;;5070148;28;20438;-86
2022/06/18 13:39:25;;;;;;;10.70;3.30;;;42.00;1.00;;;;;;5056714;28;20801;-85
2022/06/18 13:42:00;;;;;;;7.90;2.73;;;42.20;1.00;;;;;;5071013;28;20465;-85
2022/06/18 13:44:45;;;;;;;7.77;2.70;;;42.00;1.00;;;;;;5069703;28;20822;-88
2022/06/18 13:47:18;;;;;;;7.00;3.13;;;42.20;1.00;;;;;;5070123;28;20454;-85
2022/06/18 13:49:49;;;;;;;9.47;3.30;;;42.00;1.00;;;;;;5070972;28;20427;-85
2022/06/18 13:52:16;;;;;;;14.20;3.50;;;41.60;1.00;;;;;;5069487;28;20484;-86
2022/06/18 13:54:46;;;;;;;7.63;3.40;;;41.70;1.00;;;;;;5070076;28;20553;-84
2022/06/18 13:57:15;;;;;;;10.13;3.30;;;41.00;1.00;;;;;;5071223;28;20806;-85
2022/06/18 13:59:53;;;;;;;8.27;4.23;;;40.90;1.00;;;;;;5089960;28;20510;-86
2022/06/18 14:02:27;;;;;;;11.17;3.53;;;40.90;1.00;;;;;;5090235;28;20516;-84
2022/06/18 14:05:01;;;;;;;10.07;2.97;;;40.50;1.00;;;;;;5073127;28;20929;-84
2022/06/18 14:07:31;;;;;;;9.57;3.27;;;39.70;1.00;;;;;;5071192;28;20551;-86
2022/06/18 14:10:18;;;;;;;8.50;3.30;;;40.10;1.00;;;;;;5068347;28;20453;-86
2022/06/18 14:15:38;;;;;;;8.27;2.57;;;41.20;1.00;;;;;;5053539;28;20428;-86
2022/06/18 14:18:10;;;;;;;8.63;3.00;;;40.60;1.00;;;;;;5068572;28;20461;-90
2022/06/18 14:20:41;;;;;;;6.50;2.60;;;41.10;1.00;;;;;;5075782;28;20464;-87
2022/06/18 14:23:12;;;;;;;6.77;3.30;;;41.50;1.00;;;;;;5091790;28;20442;-86
2022/06/18 14:25:47;;;;;;;7.20;3.33;;;42.70;1.00;;;;;;5079115;28;20658;-86